sensor_id;sensor_type;location;lat;lon;timestamp;pressure;altitude;pressure_sealevel;temperature;humidity
80242;BME280;69556;45.004;7.532;2024-03-08T00:00:03;98410.78;;;7.11;63.68
80242;BME280;69556;45.004;7.532;2024-03-08T00:02:36;98410.78;;;7.11;63.89
80242;BME280;69556;45.004;7.532;2024-03-08T00:05:03;98416.94;;;7.09;63.64
80242;BME280;69556;45.004;7.532;2024-03-08T00:07:29;98418.72;;;7.09;63.99
80242;BME280;69556;45.004;7.532;2024-03-08T00:09:54;98419.53;;;7.11;62.97
80242;BME280;69556;45.004;7.532;2024-03-08T00:12:19;98429.16;;;7.12;62.65
80242;BME280;69556;45.004;7.532;2024-03-08T00:14:45;98425.69;;;7.10;62.95
80242;BME280;69556;45.004;7.532;2024-03-08T00:17:10;98426.53;;;7.11;62.21
80242;BME280;69556;45.004;7.532;2024-03-08T00:19:36;98428.19;;;7.15;62.25
80242;BME280;69556;45.004;7.532;2024-03-08T00:22:02;98428.19;;;7.15;62.32
80242;BME280;69556;45.004;7.532;2024-03-08T00:24:27;98422.94;;;7.15;61.98
80242;BME280;69556;45.004;7.532;2024-03-08T00:26:54;98424.59;;;7.19;61.80
80242;BME280;69556;45.004;7.532;2024-03-08T00:29:19;98424.56;;;7.22;62.30
80242;BME280;69556;45.004;7.532;2024-03-08T00:31:45;98430.59;;;7.24;61.77
80242;BME280;69556;45.004;7.532;2024-03-08T00:34:10;98420.94;;;7.26;61.13
80242;BME280;69556;45.004;7.532;2024-03-08T00:36:37;98425.22;;;7.30;60.96
80242;BME280;69556;45.004;7.532;2024-03-08T00:39:03;98421.59;;;7.35;60.30
80242;BME280;69556;45.004;7.532;2024-03-08T00:41:31;98417.97;;;7.41;60.52
80242;BME280;69556;45.004;7.532;2024-03-08T00:43:57;98415.22;;;7.45;59.97
80242;BME280;69556;45.004;7.532;2024-03-08T00:46:23;98413.38;;;7.49;58.88
80242;BME280;69556;45.004;7.532;2024-03-08T00:48:48;98412.31;;;7.56;58.54
80242;BME280;69556;45.004;7.532;2024-03-08T00:51:14;98413.16;;;7.58;58.49
80242;BME280;69556;45.004;7.532;2024-03-08T00:53:40;98407.78;;;7.63;58.61
80242;BME280;69556;45.004;7.532;2024-03-08T00:56:07;98410.50;;;7.60;58.25
80242;BME280;69556;45.004;7.532;2024-03-08T00:58:36;98406.94;;;7.62;58.16
80242;BME280;69556;45.004;7.532;2024-03-08T01:01:02;98406.03;;;7.63;58.09
80242;BME280;69556;45.004;7.532;2024-03-08T01:03:27;98414.81;;;7.62;58.19
80242;BME280;69556;45.004;7.532;2024-03-08T01:05:53;98404.22;;;7.65;59.13
80242;BME280;69556;45.004;7.532;2024-03-08T01:08:19;98406.84;;;7.65;58.68
80242;BME280;69556;45.004;7.532;2024-03-08T01:10:44;98403.44;;;7.62;58.44
80242;BME280;69556;45.004;7.532;2024-03-08T01:13:10;98409.56;;;7.62;58.68
80242;BME280;69556;45.004;7.532;2024-03-08T01:15:35;98407.81;;;7.61;60.46
80242;BME280;69556;45.004;7.532;2024-03-08T01:18:00;98404.28;;;7.64;59.09
80242;BME280;69556;45.004;7.532;2024-03-08T01:20:26;98403.31;;;7.66;57.80
80242;BME280;69556;45.004;7.532;2024-03-08T01:22:53;98408.47;;;7.71;57.84
80242;BME280;69556;45.004;7.532;2024-03-08T01:25:18;98401.44;;;7.71;58.28
80242;BME280;69556;45.004;7.532;2024-03-08T01:27:43;98399.56;;;7.76;57.75
80242;BME280;69556;45.004;7.532;2024-03-08T01:30:09;98389.81;;;7.81;57.32
80242;BME280;69556;45.004;7.532;2024-03-08T01:32:35;98387.94;;;7.85;57.38
80242;BME280;69556;45.004;7.532;2024-03-08T01:35:00;98394.97;;;7.84;57.84
80242;BME280;69556;45.004;7.532;2024-03-08T01:37:26;98389.78;;;7.83;57.79
80242;BME280;69556;45.004;7.532;2024-03-08T01:39:51;98397.59;;;7.84;58.25
80242;BME280;69556;45.004;7.532;2024-03-08T01:42:17;98401.91;;;7.88;57.79
80242;BME280;69556;45.004;7.532;2024-03-08T01:44:43;98392.22;;;7.89;57.12
80242;BME280;69556;45.004;7.532;2024-03-08T01:47:09;98393.09;;;7.89;56.95
80242;BME280;69556;45.004;7.532;2024-03-08T01:49:37;98388.56;;;7.94;58.31
80242;BME280;69556;45.004;7.532;2024-03-08T01:52:02;98388.63;;;7.93;59.82
80242;BME280;69556;45.004;7.532;2024-03-08T01:54:28;98380.69;;;7.94;58.95
80242;BME280;69556;45.004;7.532;2024-03-08T01:56:56;98379.81;;;7.94;59.03
80242;BME280;69556;45.004;7.532;2024-03-08T01:59:22;98373.69;;;7.93;60.74
80242;BME280;69556;45.004;7.532;2024-03-08T02:01:48;98372.16;;;7.86;60.85
80242;BME280;69556;45.004;7.532;2024-03-08T02:04:14;98367.00;;;7.83;60.97
80242;BME280;69556;45.004;7.532;2024-03-08T02:06:39;98361.72;;;7.83;59.21
80242;BME280;69556;45.004;7.532;2024-03-08T02:09:05;98352.88;;;7.87;58.81
80242;BME280;69556;45.004;7.532;2024-03-08T02:11:32;98358.88;;;7.91;58.53
80242;BME280;69556;45.004;7.532;2024-03-08T02:13:57;98355.44;;;7.89;59.75
80242;BME280;69556;45.004;7.532;2024-03-08T02:16:23;98354.66;;;7.85;59.77
80242;BME280;69556;45.004;7.532;2024-03-08T02:18:48;98354.63;;;7.87;59.53
80242;BME280;69556;45.004;7.532;2024-03-08T02:21:16;98348.53;;;7.85;59.94
80242;BME280;69556;45.004;7.532;2024-03-08T02:23:43;98352.91;;;7.84;59.91
80242;BME280;69556;45.004;7.532;2024-03-08T02:26:09;98345.97;;;7.83;60.67
80242;BME280;69556;45.004;7.532;2024-03-08T02:28:35;98350.34;;;7.83;61.31
80242;BME280;69556;45.004;7.532;2024-03-08T02:31:01;98345.22;;;7.78;60.85
80242;BME280;69556;45.004;7.532;2024-03-08T02:33:27;98349.56;;;7.79;61.35
80242;BME280;69556;45.004;7.532;2024-03-08T02:35:54;98347.91;;;7.75;62.63
80242;BME280;69556;45.004;7.532;2024-03-08T02:38:21;98347.91;;;7.75;62.03
80242;BME280;69556;45.004;7.532;2024-03-08T02:40:49;98350.53;;;7.75;61.30
80242;BME280;69556;45.004;7.532;2024-03-08T02:43:15;98355.75;;;7.77;60.57
80242;BME280;69556;45.004;7.532;2024-03-08T02:45:41;98341.72;;;7.78;60.73
80242;BME280;69556;45.004;7.532;2024-03-08T02:48:11;98338.28;;;7.76;61.13
80242;BME280;69556;45.004;7.532;2024-03-08T02:50:37;98347.00;;;7.78;61.04
80242;BME280;69556;45.004;7.532;2024-03-08T02:53:04;98342.50;;;7.81;60.93
80242;BME280;69556;45.004;7.532;2024-03-08T02:55:30;98337.34;;;7.78;61.49
80242;BME280;69556;45.004;7.532;2024-03-08T02:57:56;98342.59;;;7.78;62.52
80242;BME280;69556;45.004;7.532;2024-03-08T03:00:23;98343.53;;;7.76;63.11
80242;BME280;69556;45.004;7.532;2024-03-08T03:02:49;98338.38;;;7.73;64.15
80242;BME280;69556;45.004;7.532;2024-03-08T03:05:25;98341.97;;;7.69;65.67
80242;BME280;69556;45.004;7.532;2024-03-08T03:07:51;98349.88;;;7.67;65.98
80242;BME280;69556;45.004;7.532;2024-03-08T03:10:16;98344.63;;;7.67;66.20
80242;BME280;69556;45.004;7.532;2024-03-08T03:12:42;98343.88;;;7.62;66.97
80242;BME280;69556;45.004;7.532;2024-03-08T03:15:08;98343.78;;;7.65;66.84
80242;BME280;69556;45.004;7.532;2024-03-08T03:17:34;98342.00;;;7.67;68.03
80242;BME280;69556;45.004;7.532;2024-03-08T03:19:59;98349.75;;;7.72;68.27
80242;BME280;69556;45.004;7.532;2024-03-08T03:22:28;98341.03;;;7.71;68.94
80242;BME280;69556;45.004;7.532;2024-03-08T03:24:55;98341.88;;;7.72;69.12
80242;BME280;69556;45.004;7.532;2024-03-08T03:27:23;98347.16;;;7.70;69.40
80242;BME280;69556;45.004;7.532;2024-03-08T03:29:50;98347.09;;;7.73;69.27
80242;BME280;69556;45.004;7.532;2024-03-08T03:32:17;98348.78;;;7.76;69.71
80242;BME280;69556;45.004;7.532;2024-03-08T03:34:44;98353.97;;;7.79;69.82
80242;BME280;69556;45.004;7.532;2024-03-08T03:37:09;98355.66;;;7.81;70.57
80242;BME280;69556;45.004;7.532;2024-03-08T03:39:38;98350.38;;;7.81;71.08
80242;BME280;69556;45.004;7.532;2024-03-08T03:42:19;98357.44;;;7.79;71.52
80242;BME280;69556;45.004;7.532;2024-03-08T03:44:45;98350.41;;;7.80;72.05
80242;BME280;69556;45.004;7.532;2024-03-08T03:47:12;98348.63;;;7.82;72.14
80242;BME280;69556;45.004;7.532;2024-03-08T03:49:38;98354.75;;;7.82;71.99
80242;BME280;69556;45.004;7.532;2024-03-08T03:52:03;98360.94;;;7.80;72.48
80242;BME280;69556;45.004;7.532;2024-03-08T03:54:30;98358.19;;;7.84;72.78
80242;BME280;69556;45.004;7.532;2024-03-08T03:56:56;98358.19;;;7.84;72.87
80242;BME280;69556;45.004;7.532;2024-03-08T03:59:21;98364.31;;;7.85;72.92
80242;BME280;69556;45.004;7.532;2024-03-08T04:01:47;98364.31;;;7.85;72.01
80242;BME280;69556;45.004;7.532;2024-03-08T04:04:12;98365.19;;;7.84;69.87
80242;BME280;69556;45.004;7.532;2024-03-08T04:06:38;98353.97;;;7.79;68.74
80242;BME280;69556;45.004;7.532;2024-03-08T04:09:03;98359.09;;;7.83;69.26
80242;BME280;69556;45.004;7.532;2024-03-08T04:11:30;98360.13;;;7.78;68.80
80242;BME280;69556;45.004;7.532;2024-03-08T04:13:55;98363.66;;;7.77;69.29
80242;BME280;69556;45.004;7.532;2024-03-08T04:16:21;98359.22;;;7.79;68.37
80242;BME280;69556;45.004;7.532;2024-03-08T04:18:46;98361.97;;;7.74;68.19
80242;BME280;69556;45.004;7.532;2024-03-08T04:21:13;98358.41;;;7.75;67.22
80242;BME280;69556;45.004;7.532;2024-03-08T04:23:38;98361.03;;;7.77;67.24
80242;BME280;69556;45.004;7.532;2024-03-08T04:26:03;98350.41;;;7.80;67.39
80242;BME280;69556;45.004;7.532;2024-03-08T04:28:34;98354.81;;;7.79;66.02
80242;BME280;69556;45.004;7.532;2024-03-08T04:31:00;98355.66;;;7.80;65.84
80242;BME280;69556;45.004;7.532;2024-03-08T04:33:26;98351.50;;;7.73;65.19
80242;BME280;69556;45.004;7.532;2024-03-08T04:35:52;98348.75;;;7.77;65.72
80242;BME280;69556;45.004;7.532;2024-03-08T04:38:17;98353.09;;;7.78;66.12
80242;BME280;69556;45.004;7.532;2024-03-08T04:40:42;98348.00;;;7.72;67.05
80242;BME280;69556;45.004;7.532;2024-03-08T04:43:08;98350.59;;;7.74;67.08
80242;BME280;69556;45.004;7.532;2024-03-08T04:45:35;98348.00;;;7.72;66.60
80242;BME280;69556;45.004;7.532;2024-03-08T04:48:01;98344.63;;;7.67;67.11
80242;BME280;69556;45.004;7.532;2024-03-08T04:50:26;98351.63;;;7.68;66.67
80242;BME280;69556;45.004;7.532;2024-03-08T04:52:54;98355.06;;;7.70;66.78
80242;BME280;69556;45.004;7.532;2024-03-08T04:55:19;98353.34;;;7.69;67.03
80242;BME280;69556;45.004;7.532;2024-03-08T04:57:46;98354.22;;;7.70;66.46
80242;BME280;69556;45.004;7.532;2024-03-08T05:00:12;98357.69;;;7.70;66.29
80242;BME280;69556;45.004;7.532;2024-03-08T05:02:38;98361.16;;;7.71;66.94
80242;BME280;69556;45.004;7.532;2024-03-08T05:05:05;98364.78;;;7.67;68.07
80242;BME280;69556;45.004;7.532;2024-03-08T05:07:31;98358.78;;;7.62;68.66
80242;BME280;69556;45.004;7.532;2024-03-08T05:09:58;98363.13;;;7.63;69.59
80242;BME280;69556;45.004;7.532;2024-03-08T05:12:23;98356.25;;;7.59;70.15
80242;BME280;69556;45.004;7.532;2024-03-08T05:14:48;98355.38;;;7.58;71.00
80242;BME280;69556;45.004;7.532;2024-03-08T05:17:15;98359.78;;;7.56;71.08
80242;BME280;69556;45.004;7.532;2024-03-08T05:19:41;98349.34;;;7.55;71.25
80242;BME280;69556;45.004;7.532;2024-03-08T05:22:06;98350.25;;;7.53;71.95
80242;BME280;69556;45.004;7.532;2024-03-08T05:24:32;98345.88;;;7.52;72.38
80242;BME280;69556;45.004;7.532;2024-03-08T05:26:58;98339.84;;;7.49;72.49
80242;BME280;69556;45.004;7.532;2024-03-08T05:29:25;98337.97;;;7.54;72.82
80242;BME280;69556;45.004;7.532;2024-03-08T05:31:51;98341.50;;;7.53;73.21
80242;BME280;69556;45.004;7.532;2024-03-08T05:34:21;98338.34;;;7.40;74.31
80242;BME280;69556;45.004;7.532;2024-03-08T05:36:47;98336.50;;;7.42;74.84
80242;BME280;69556;45.004;7.532;2024-03-08T05:39:15;98340.19;;;7.37;76.04
80242;BME280;69556;45.004;7.532;2024-03-08T05:41:41;98350.69;;;7.37;76.23
80242;BME280;69556;45.004;7.532;2024-03-08T05:44:07;98356.84;;;7.34;76.87
80242;BME280;69556;45.004;7.532;2024-03-08T05:46:33;98356.06;;;7.32;77.75
80242;BME280;69556;45.004;7.532;2024-03-08T05:49:00;98350.81;;;7.31;78.13
80242;BME280;69556;45.004;7.532;2024-03-08T05:51:25;98356.06;;;7.32;77.96
80242;BME280;69556;45.004;7.532;2024-03-08T05:53:53;98346.38;;;7.33;78.37
80242;BME280;69556;45.004;7.532;2024-03-08T05:56:22;98350.75;;;7.34;78.76
80242;BME280;69556;45.004;7.532;2024-03-08T05:58:48;98363.88;;;7.34;78.70
80242;BME280;69556;45.004;7.532;2024-03-08T06:01:15;98360.44;;;7.32;79.19
80242;BME280;69556;45.004;7.532;2024-03-08T06:03:40;98364.13;;;7.23;80.04
80242;BME280;69556;45.004;7.532;2024-03-08T06:06:14;98367.56;;;7.27;80.56
80242;BME280;69556;45.004;7.532;2024-03-08T06:08:40;98366.69;;;7.26;81.04
80242;BME280;69556;45.004;7.532;2024-03-08T06:11:08;98371.97;;;7.25;81.06
80242;BME280;69556;45.004;7.532;2024-03-08T06:13:34;98371.28;;;7.17;82.11
80242;BME280;69556;45.004;7.532;2024-03-08T06:15:59;98375.66;;;7.18;82.31
80242;BME280;69556;45.004;7.532;2024-03-08T06:18:26;98372.28;;;7.13;82.80
80242;BME280;69556;45.004;7.532;2024-03-08T06:20:51;98374.06;;;7.11;83.12
80242;BME280;69556;45.004;7.532;2024-03-08T06:23:17;98375.78;;;7.12;82.82
80242;BME280;69556;45.004;7.532;2024-03-08T06:25:46;98378.28;;;7.18;82.95
80242;BME280;69556;45.004;7.532;2024-03-08T06:28:11;98374.13;;;7.09;83.25
80242;BME280;69556;45.004;7.532;2024-03-08T06:30:36;98381.97;;;7.09;83.87
80242;BME280;69556;45.004;7.532;2024-03-08T06:33:02;98379.25;;;7.14;83.31
80242;BME280;69556;45.004;7.532;2024-03-08T06:35:27;98378.44;;;7.10;84.00
80242;BME280;69556;45.004;7.532;2024-03-08T06:37:53;98393.41;;;7.05;84.66
80242;BME280;69556;45.004;7.532;2024-03-08T06:40:18;98390.00;;;7.01;84.78
80242;BME280;69556;45.004;7.532;2024-03-08T06:42:43;98397.00;;;7.02;84.64
80242;BME280;69556;45.004;7.532;2024-03-08T06:45:09;98402.25;;;7.02;85.25
80242;BME280;69556;45.004;7.532;2024-03-08T06:47:36;98398.56;;;7.09;85.53
80242;BME280;69556;45.004;7.532;2024-03-08T06:50:02;98396.78;;;7.12;84.97
80242;BME280;69556;45.004;7.532;2024-03-08T06:52:29;98402.00;;;7.13;85.48
80242;BME280;69556;45.004;7.532;2024-03-08T06:54:54;98407.31;;;7.10;85.72
80242;BME280;69556;45.004;7.532;2024-03-08T06:57:19;98407.25;;;7.13;85.54
80242;BME280;69556;45.004;7.532;2024-03-08T06:59:48;98394.84;;;7.20;85.54
80242;BME280;69556;45.004;7.532;2024-03-08T07:02:14;98405.28;;;7.23;85.86
80242;BME280;69556;45.004;7.532;2024-03-08T07:04:39;98398.16;;;7.28;85.28
80242;BME280;69556;45.004;7.532;2024-03-08T07:07:05;98402.44;;;7.32;85.40
80242;BME280;69556;45.004;7.532;2024-03-08T07:09:35;98400.50;;;7.38;84.92
80242;BME280;69556;45.004;7.532;2024-03-08T07:12:03;98401.47;;;7.36;85.14
80242;BME280;69556;45.004;7.532;2024-03-08T07:14:29;98407.47;;;7.41;85.40
80242;BME280;69556;45.004;7.532;2024-03-08T07:16:54;98400.47;;;7.41;85.82
80242;BME280;69556;45.004;7.532;2024-03-08T07:19:20;98409.09;;;7.46;85.38
80242;BME280;69556;45.004;7.532;2024-03-08T07:21:46;98408.91;;;7.52;85.19
80242;BME280;69556;45.004;7.532;2024-03-08T07:24:13;98411.38;;;7.60;85.49
80242;BME280;69556;45.004;7.532;2024-03-08T07:26:53;98406.94;;;7.61;84.97
80242;BME280;69556;45.004;7.532;2024-03-08T07:29:19;98416.63;;;7.60;85.37
80242;BME280;69556;45.004;7.532;2024-03-08T07:31:44;98415.34;;;7.75;85.10
80242;BME280;69556;45.004;7.532;2024-03-08T07:34:16;98414.44;;;7.77;85.03
80242;BME280;69556;45.004;7.532;2024-03-08T07:36:42;98413.31;;;7.86;84.82
80242;BME280;69556;45.004;7.532;2024-03-08T07:39:07;98408.84;;;7.89;84.26
80242;BME280;69556;45.004;7.532;2024-03-08T07:41:37;98426.19;;;7.96;83.97
80242;BME280;69556;45.004;7.532;2024-03-08T07:44:06;98419.88;;;8.04;83.60
80242;BME280;69556;45.004;7.532;2024-03-08T07:46:31;98430.34;;;8.05;82.51
80242;BME280;69556;45.004;7.532;2024-03-08T07:48:59;98424.75;;;8.17;82.59
80242;BME280;69556;45.004;7.532;2024-03-08T07:51:24;98434.09;;;8.29;81.89
80242;BME280;69556;45.004;7.532;2024-03-08T07:53:50;98420.75;;;8.36;80.46
80242;BME280;69556;45.004;7.532;2024-03-08T07:56:15;98424.00;;;8.46;80.31
80242;BME280;69556;45.004;7.532;2024-03-08T07:58:47;98427.63;;;8.42;79.03
80242;BME280;69556;45.004;7.532;2024-03-08T08:01:18;98430.09;;;8.48;78.71
80242;BME280;69556;45.004;7.532;2024-03-08T08:03:45;98430.81;;;8.53;78.96
80242;BME280;69556;45.004;7.532;2024-03-08T08:06:10;98433.53;;;8.50;78.35
80242;BME280;69556;45.004;7.532;2024-03-08T08:08:41;98434.41;;;8.49;78.38
80242;BME280;69556;45.004;7.532;2024-03-08T08:11:07;98439.31;;;8.63;77.82
80242;BME280;69556;45.004;7.532;2024-03-08T08:13:34;98431.47;;;8.61;78.05
80242;BME280;69556;45.004;7.532;2024-03-08T08:16:00;98432.81;;;8.74;77.43
80242;BME280;69556;45.004;7.532;2024-03-08T08:18:25;98422.91;;;8.84;77.25
80242;BME280;69556;45.004;7.532;2024-03-08T08:20:51;98433.03;;;8.96;76.80
80242;BME280;69556;45.004;7.532;2024-03-08T08:23:17;98434.13;;;8.91;76.71
80242;BME280;69556;45.004;7.532;2024-03-08T08:25:44;98429.72;;;8.91;77.20
80242;BME280;69556;45.004;7.532;2024-03-08T08:28:11;98426.34;;;8.86;76.92
80242;BME280;69556;45.004;7.532;2024-03-08T08:30:38;98425.66;;;8.79;77.50
80242;BME280;69556;45.004;7.532;2024-03-08T08:33:04;98435.16;;;8.85;77.23
80242;BME280;69556;45.004;7.532;2024-03-08T08:35:31;98431.56;;;8.88;76.94
80242;BME280;69556;45.004;7.532;2024-03-08T08:37:58;98435.81;;;8.92;77.64
80242;BME280;69556;45.004;7.532;2024-03-08T08:40:24;98434.72;;;9.00;77.16
80242;BME280;69556;45.004;7.532;2024-03-08T08:42:53;98431.13;;;9.01;77.40
80242;BME280;69556;45.004;7.532;2024-03-08T08:45:18;98441.94;;;8.92;76.76
80242;BME280;69556;45.004;7.532;2024-03-08T08:47:44;98429.97;;;8.82;76.87
80242;BME280;69556;45.004;7.532;2024-03-08T08:50:10;98432.66;;;8.80;77.77
80242;BME280;69556;45.004;7.532;2024-03-08T08:52:41;98432.56;;;8.83;77.60
80242;BME280;69556;45.004;7.532;2024-03-08T08:55:08;98432.53;;;8.85;77.77
80242;BME280;69556;45.004;7.532;2024-03-08T08:57:34;98435.94;;;8.87;77.72
80242;BME280;69556;45.004;7.532;2024-03-08T09:00:00;98430.47;;;8.95;78.10
80242;BME280;69556;45.004;7.532;2024-03-08T09:02:28;98427.78;;;8.96;77.70
80242;BME280;69556;45.004;7.532;2024-03-08T09:04:54;98424.84;;;9.07;77.88
80242;BME280;69556;45.004;7.532;2024-03-08T09:07:20;98419.91;;;9.24;77.82
80242;BME280;69556;45.004;7.532;2024-03-08T09:09:46;98418.81;;;9.31;76.72
80242;BME280;69556;45.004;7.532;2024-03-08T09:12:11;98428.78;;;9.49;75.80
80242;BME280;69556;45.004;7.532;2024-03-08T09:14:39;98429.00;;;9.69;76.37
80242;BME280;69556;45.004;7.532;2024-03-08T09:17:05;98431.72;;;9.66;75.46
80242;BME280;69556;45.004;7.532;2024-03-08T09:19:33;98432.53;;;9.68;76.37
80242;BME280;69556;45.004;7.532;2024-03-08T09:21:58;98422.03;;;9.67;76.50
80242;BME280;69556;45.004;7.532;2024-03-08T09:24:24;98423.19;;;9.58;76.14
80242;BME280;69556;45.004;7.532;2024-03-08T09:26:49;98428.28;;;9.64;76.58
80242;BME280;69556;45.004;7.532;2024-03-08T09:29:15;98427.97;;;9.73;77.58
80242;BME280;69556;45.004;7.532;2024-03-08T09:31:41;98421.22;;;9.91;76.26
80242;BME280;69556;45.004;7.532;2024-03-08T09:34:06;98418.06;;;9.80;74.95
80242;BME280;69556;45.004;7.532;2024-03-08T09:36:34;98420.78;;;10.03;75.54
80242;BME280;69556;45.004;7.532;2024-03-08T09:38:59;98417.03;;;10.10;75.03
80242;BME280;69556;45.004;7.532;2024-03-08T09:41:25;98416.88;;;10.17;75.15
80242;BME280;69556;45.004;7.532;2024-03-08T09:43:51;98426.25;;;10.25;74.24
80242;BME280;69556;45.004;7.532;2024-03-08T09:46:18;98422.31;;;10.10;74.67
80242;BME280;69556;45.004;7.532;2024-03-08T09:48:45;98437.44;;;10.05;74.83
80242;BME280;69556;45.004;7.532;2024-03-08T09:51:12;98434.84;;;10.04;74.45
80242;BME280;69556;45.004;7.532;2024-03-08T09:53:40;98427.16;;;9.98;75.18
80242;BME280;69556;45.004;7.532;2024-03-08T09:56:07;98435.72;;;10.04;75.73
80242;BME280;69556;45.004;7.532;2024-03-08T09:58:33;98433.94;;;10.05;75.56
80242;BME280;69556;45.004;7.532;2024-03-08T10:00:59;98440.34;;;9.98;75.24
80242;BME280;69556;45.004;7.532;2024-03-08T10:03:27;98439.88;;;10.11;74.76
80242;BME280;69556;45.004;7.532;2024-03-08T10:05:53;98432.91;;;10.09;74.87
80242;BME280;69556;45.004;7.532;2024-03-08T10:08:21;98437.03;;;10.18;75.07
80242;BME280;69556;45.004;7.532;2024-03-08T10:10:47;98425.91;;;10.08;74.59
80242;BME280;69556;45.004;7.532;2024-03-08T10:13:12;98421.63;;;10.05;75.12
80242;BME280;69556;45.004;7.532;2024-03-08T10:15:39;98424.28;;;10.04;75.41
80242;BME280;69556;45.004;7.532;2024-03-08T10:18:06;98424.63;;;10.21;75.26
80242;BME280;69556;45.004;7.532;2024-03-08T10:20:32;98416.16;;;10.36;74.68
80242;BME280;69556;45.004;7.532;2024-03-08T10:23:01;98406.19;;;10.44;73.51
80242;BME280;69556;45.004;7.532;2024-03-08T10:25:29;98417.53;;;10.46;73.50
80242;BME280;69556;45.004;7.532;2024-03-08T10:27:55;98415.72;;;10.48;73.66
80242;BME280;69556;45.004;7.532;2024-03-08T10:30:21;98419.72;;;10.35;74.48
80242;BME280;69556;45.004;7.532;2024-03-08T10:32:47;98416.75;;;10.44;74.89
80242;BME280;69556;45.004;7.532;2024-03-08T10:35:13;98415.59;;;10.51;74.79
80242;BME280;69556;45.004;7.532;2024-03-08T10:37:49;98411.22;;;10.50;74.19
80242;BME280;69556;45.004;7.532;2024-03-08T10:40:29;98406.09;;;10.47;73.52
80242;BME280;69556;45.004;7.532;2024-03-08T10:42:57;98406.81;;;10.51;74.02
80242;BME280;69556;45.004;7.532;2024-03-08T10:45:39;98401.00;;;10.41;74.26
80242;BME280;69556;45.004;7.532;2024-03-08T10:48:30;98402.03;;;10.37;73.68
80242;BME280;69556;45.004;7.532;2024-03-08T10:50:59;98405.25;;;10.45;74.71
80242;BME280;69556;45.004;7.532;2024-03-08T10:53:27;98407.16;;;10.42;74.15
80242;BME280;69556;45.004;7.532;2024-03-08T10:55:56;98413.09;;;10.24;74.32
80242;BME280;69556;45.004;7.532;2024-03-08T10:58:23;98402.66;;;10.21;75.44
80242;BME280;69556;45.004;7.532;2024-03-08T11:00:53;98423.44;;;10.30;74.56
80242;BME280;69556;45.004;7.532;2024-03-08T11:03:46;98421.50;;;10.35;75.56
80242;BME280;69556;45.004;7.532;2024-03-08T11:12:18;98417.84;;;10.39;74.54
80242;BME280;69556;45.004;7.532;2024-03-08T11:14:45;98408.34;;;10.33;74.55
80242;BME280;69556;45.004;7.532;2024-03-08T11:17:14;98414.44;;;10.35;74.40
80242;BME280;69556;45.004;7.532;2024-03-08T11:19:46;98412.34;;;10.45;74.43
80242;BME280;69556;45.004;7.532;2024-03-08T11:22:21;98410.53;;;10.45;74.08
80242;BME280;69556;45.004;7.532;2024-03-08T11:24:49;98406.94;;;10.48;73.98
80242;BME280;69556;45.004;7.532;2024-03-08T11:27:15;98406.09;;;10.47;74.09
80242;BME280;69556;45.004;7.532;2024-03-08T11:29:40;98402.44;;;10.50;74.35
80242;BME280;69556;45.004;7.532;2024-03-08T11:32:12;98402.28;;;10.54;74.34
80242;BME280;69556;45.004;7.532;2024-03-08T11:34:49;98399.66;;;10.54;74.75
80242;BME280;69556;45.004;7.532;2024-03-08T11:37:19;98394.38;;;10.54;74.33
80242;BME280;69556;45.004;7.532;2024-03-08T11:39:53;98399.06;;;10.46;73.73
80242;BME280;69556;45.004;7.532;2024-03-08T11:42:26;98381.06;;;10.34;74.04
80242;BME280;69556;45.004;7.532;2024-03-08T11:44:53;98380.47;;;10.26;74.15
80242;BME280;69556;45.004;7.532;2024-03-08T11:47:19;98383.56;;;10.37;74.01
80242;BME280;69556;45.004;7.532;2024-03-08T11:49:45;98379.22;;;10.36;74.20
80242;BME280;69556;45.004;7.532;2024-03-08T11:52:16;98373.09;;;10.36;74.55
80242;BME280;69556;45.004;7.532;2024-03-08T11:54:53;98373.03;;;10.37;74.95
80242;BME280;69556;45.004;7.532;2024-03-08T11:57:22;98363.50;;;10.33;73.97
80242;BME280;69556;45.004;7.532;2024-03-08T11:59:51;98365.22;;;10.34;74.33
80242;BME280;69556;45.004;7.532;2024-03-08T12:02:17;98367.06;;;10.32;75.30
80242;BME280;69556;45.004;7.532;2024-03-08T12:04:44;98361.03;;;10.29;74.49
80242;BME280;69556;45.004;7.532;2024-03-08T12:07:11;98363.03;;;10.22;75.47
80242;BME280;69556;45.004;7.532;2024-03-08T12:09:39;98362.28;;;10.19;74.89
80242;BME280;69556;45.004;7.532;2024-03-08T12:12:06;98358.00;;;10.16;75.75
80242;BME280;69556;45.004;7.532;2024-03-08T12:14:33;98353.44;;;10.20;75.63
80242;BME280;69556;45.004;7.532;2024-03-08T12:16:59;98351.91;;;10.12;76.68
80242;BME280;69556;45.004;7.532;2024-03-08T12:19:27;98351.16;;;10.09;76.58
80242;BME280;69556;45.004;7.532;2024-03-08T12:21:54;98342.47;;;10.07;77.08
80242;BME280;69556;45.004;7.532;2024-03-08T12:24:19;98347.81;;;10.04;76.87
80242;BME280;69556;45.004;7.532;2024-03-08T12:26:47;98339.44;;;9.93;76.76
80242;BME280;69556;45.004;7.532;2024-03-08T12:29:25;98345.75;;;9.89;77.10
80242;BME280;69556;45.004;7.532;2024-03-08T12:31:58;98334.75;;;9.76;77.85
80242;BME280;69556;45.004;7.532;2024-03-08T12:34:26;98323.47;;;9.72;78.38
80242;BME280;69556;45.004;7.532;2024-03-08T12:36:57;98330.53;;;9.70;78.55
80242;BME280;69556;45.004;7.532;2024-03-08T12:39:23;98323.50;;;9.71;79.02
80242;BME280;69556;45.004;7.532;2024-03-08T12:41:52;98317.63;;;9.63;79.91
80242;BME280;69556;45.004;7.532;2024-03-08T12:44:18;98308.16;;;9.57;79.98
80242;BME280;69556;45.004;7.532;2024-03-08T12:46:47;98303.16;;;9.50;81.54
80242;BME280;69556;45.004;7.532;2024-03-08T12:49:13;98309.31;;;9.50;82.09
80242;BME280;69556;45.004;7.532;2024-03-08T12:51:45;98306.75;;;9.47;83.80
80242;BME280;69556;45.004;7.532;2024-03-08T12:54:11;98298.97;;;9.44;83.62
80242;BME280;69556;45.004;7.532;2024-03-08T12:56:36;98301.56;;;9.46;83.69
80242;BME280;69556;45.004;7.532;2024-03-08T12:59:03;98301.72;;;9.41;84.19
80242;BME280;69556;45.004;7.532;2024-03-08T13:01:30;98289.72;;;9.33;85.18
80242;BME280;69556;45.004;7.532;2024-03-08T13:03:57;98295.63;;;9.39;85.57
80242;BME280;69556;45.004;7.532;2024-03-08T13:06:24;98290.34;;;9.39;86.73
80242;BME280;69556;45.004;7.532;2024-03-08T13:08:54;98289.59;;;9.36;86.90
80242;BME280;69556;45.004;7.532;2024-03-08T13:11:21;98283.97;;;9.46;86.79
80242;BME280;69556;45.004;7.532;2024-03-08T13:13:46;98279.94;;;9.36;87.03